createdAt,value
2023-07-28T00:01:00.960Z,21.10
2023-07-28T00:03:28.091Z,21.20
2023-07-28T00:05:55.218Z,21.10
2023-07-28T00:08:22.318Z,21.00
2023-07-28T00:10:49.301Z,21.00
2023-07-28T00:13:16.509Z,21.10
2023-07-28T00:15:43.554Z,21.00
2023-07-28T00:18:10.604Z,21.10
2023-07-28T00:20:37.632Z,21.00
2023-07-28T00:23:04.710Z,21.00
2023-07-28T00:25:31.766Z,21.00
2023-07-28T00:27:58.904Z,21.00
2023-07-28T00:30:27.903Z,21.00
2023-07-28T00:32:55.124Z,21.00
2023-07-28T00:35:22.323Z,21.00
2023-07-28T00:37:49.325Z,21.00
2023-07-28T00:40:16.446Z,21.00
2023-07-28T00:42:43.643Z,21.00
2023-07-28T00:45:10.920Z,20.90
2023-07-28T00:47:38.141Z,20.90
2023-07-28T00:50:05.667Z,21.00
2023-07-28T00:52:32.925Z,21.00
2023-07-28T00:55:00.339Z,20.90
2023-07-28T00:57:27.480Z,20.90
2023-07-28T00:59:55.371Z,20.90
2023-07-28T01:02:22.659Z,20.90
2023-07-28T01:04:50.096Z,20.80
2023-07-28T01:07:21.573Z,20.80
2023-07-28T01:09:54.122Z,20.70
2023-07-28T01:12:21.221Z,20.60
2023-07-28T01:14:48.200Z,20.50
2023-07-28T01:17:15.569Z,20.50
2023-07-28T01:19:42.762Z,20.50
2023-07-28T01:22:19.071Z,20.40
2023-07-28T01:24:47.681Z,20.40
2023-07-28T01:27:14.739Z,20.30
2023-07-28T01:29:42.401Z,20.30
2023-07-28T01:32:11.582Z,20.30
2023-07-28T01:34:38.661Z,20.30
2023-07-28T01:37:05.965Z,20.10
2023-07-28T01:39:33.192Z,20.10
2023-07-28T01:42:00.240Z,20.10
2023-07-28T01:44:27.385Z,20.10
2023-07-28T01:46:54.400Z,20.10
2023-07-28T01:49:21.531Z,20.10
2023-07-28T01:51:48.610Z,20.10
2023-07-28T01:54:15.709Z,20.10
2023-07-28T01:56:42.688Z,20.20
2023-07-28T01:59:09.800Z,20.30
2023-07-28T02:01:36.905Z,20.30
2023-07-28T02:04:04.179Z,20.40
2023-07-28T02:06:32.852Z,20.30
2023-07-28T02:09:00.239Z,20.30
2023-07-28T02:11:27.289Z,20.30
2023-07-28T02:13:54.461Z,20.20
2023-07-28T02:16:21.532Z,20.10
2023-07-28T02:18:48.742Z,20.20
2023-07-28T02:21:15.869Z,20.20
2023-07-28T02:23:42.959Z,20.20
2023-07-28T02:26:09.931Z,20.10
2023-07-28T02:28:37.218Z,20.20
2023-07-28T02:31:04.294Z,20.30
2023-07-28T02:33:32.972Z,20.30
2023-07-28T02:36:00.022Z,20.30
2023-07-28T02:38:27.386Z,20.40
2023-07-28T02:40:54.588Z,20.40
2023-07-28T02:43:21.741Z,20.40
2023-07-28T02:45:49.851Z,20.40
2023-07-28T02:48:17.466Z,20.50
2023-07-28T02:50:46.073Z,20.50
2023-07-28T02:53:13.131Z,20.50
2023-07-28T02:55:41.710Z,20.50
2023-07-28T02:58:09.571Z,20.40
2023-07-28T03:00:38.181Z,20.40
2023-07-28T03:03:05.721Z,20.40
2023-07-28T03:05:33.670Z,20.40
2023-07-28T03:08:13.920Z,20.40
2023-07-28T03:10:41.145Z,20.40
2023-07-28T03:13:08.366Z,20.40
2023-07-28T03:15:35.528Z,20.40
2023-07-28T03:18:02.658Z,20.40
2023-07-28T03:20:30.129Z,20.50
2023-07-28T03:22:57.130Z,20.60
2023-07-28T03:25:24.317Z,20.60
2023-07-28T03:27:51.544Z,20.70
2023-07-28T03:30:18.751Z,20.80
2023-07-28T03:32:46.322Z,20.80
2023-07-28T03:35:14.012Z,20.80
2023-07-28T03:37:46.360Z,20.80
2023-07-28T03:40:13.556Z,20.80
2023-07-28T03:42:48.092Z,20.80
2023-07-28T03:45:15.423Z,20.70
2023-07-28T03:47:42.356Z,20.70
2023-07-28T03:50:09.619Z,20.80
2023-07-28T03:52:36.754Z,20.80
2023-07-28T03:55:04.193Z,20.80
2023-07-28T03:57:31.277Z,20.80
2023-07-28T03:59:58.400Z,20.80
2023-07-28T04:02:25.384Z,20.80
2023-07-28T04:04:54.103Z,20.90
2023-07-28T04:07:21.268Z,20.80
2023-07-28T04:09:48.360Z,20.80
2023-07-28T04:12:15.351Z,20.80
2023-07-28T04:14:43.198Z,20.80
2023-07-28T04:17:10.241Z,20.80
2023-07-28T04:19:38.133Z,20.80
2023-07-28T04:22:05.369Z,20.80
2023-07-28T04:24:33.987Z,20.80
2023-07-28T04:27:01.031Z,20.70
2023-07-28T04:29:28.407Z,20.70
2023-07-28T04:31:55.851Z,20.70
2023-07-28T04:34:29.825Z,20.70
2023-07-28T04:37:06.722Z,20.80
2023-07-28T04:39:45.501Z,20.80
2023-07-28T04:42:14.907Z,20.80
2023-07-28T04:44:47.500Z,20.90
2023-07-28T04:47:15.747Z,20.90
2023-07-28T04:49:43.561Z,21.00
2023-07-28T04:52:30.611Z,21.00
2023-07-28T04:54:59.162Z,20.90
2023-07-28T04:57:26.149Z,20.90
2023-07-28T04:59:53.270Z,20.90
2023-07-28T05:02:20.202Z,21.00
2023-07-28T05:04:47.376Z,21.00
2023-07-28T05:07:14.428Z,20.90
2023-07-28T05:09:41.697Z,20.90
2023-07-28T05:12:08.813Z,21.00
2023-07-28T05:14:43.211Z,21.00
2023-07-28T05:17:11.337Z,21.00
2023-07-28T05:19:44.873Z,21.00
2023-07-28T05:22:13.481Z,21.00
2023-07-28T05:24:46.441Z,21.00
2023-07-28T05:27:14.642Z,21.00
2023-07-28T05:29:44.982Z,21.10
2023-07-28T05:32:12.355Z,21.10
2023-07-28T05:34:54.853Z,21.10
2023-07-28T05:37:22.052Z,21.10
2023-07-28T05:39:49.119Z,21.20
2023-07-28T05:42:16.286Z,21.20
2023-07-28T05:44:43.412Z,21.20
2023-07-28T05:47:10.849Z,21.20
2023-07-28T05:49:37.967Z,21.30
2023-07-28T05:52:05.524Z,21.30
2023-07-28T05:54:32.491Z,21.30
2023-07-28T05:57:00.028Z,21.30
2023-07-28T05:59:27.228Z,21.30
2023-07-28T06:01:54.623Z,21.30
2023-07-28T06:04:23.379Z,21.30
2023-07-28T06:06:53.950Z,21.20
2023-07-28T06:09:21.053Z,21.20
2023-07-28T06:11:48.330Z,21.20
2023-07-28T06:14:16.579Z,21.20
2023-07-28T06:16:43.664Z,21.20
2023-07-28T06:19:10.848Z,21.20
2023-07-28T06:21:39.700Z,21.20
2023-07-28T06:24:07.032Z,21.20
2023-07-28T06:26:34.808Z,21.20
2023-07-28T06:29:02.041Z,21.20
2023-07-28T06:31:29.216Z,21.20
2023-07-28T06:33:56.763Z,21.20
2023-07-28T06:36:23.764Z,21.20
2023-07-28T06:38:52.377Z,21.20
2023-07-28T06:41:19.372Z,21.20
2023-07-28T06:43:47.260Z,21.20
2023-07-28T06:46:14.339Z,21.20
2023-07-28T06:48:42.099Z,21.30
2023-07-28T06:51:09.160Z,21.40
2023-07-28T06:53:36.478Z,21.50
2023-07-28T06:56:03.484Z,21.60
2023-07-28T06:58:30.646Z,21.60
2023-07-28T07:00:58.129Z,21.60
2023-07-28T07:03:25.405Z,21.60
2023-07-28T07:05:52.403Z,21.70
2023-07-28T07:08:19.556Z,21.70
2023-07-28T07:10:48.078Z,21.80
2023-07-28T07:13:15.127Z,21.80
2023-07-28T07:15:43.420Z,21.80
2023-07-28T07:18:10.622Z,21.90
2023-07-28T07:20:38.131Z,21.90
2023-07-28T07:23:05.973Z,21.90
2023-07-28T07:25:33.119Z,22.00
2023-07-28T07:28:03.394Z,22.10
2023-07-28T07:30:33.031Z,22.30
2023-07-28T07:33:00.045Z,22.30
2023-07-28T07:35:27.171Z,22.40
2023-07-28T07:37:54.219Z,22.30
2023-07-28T07:40:21.262Z,22.30
2023-07-28T07:42:49.381Z,22.30
2023-07-28T07:45:16.548Z,22.30
2023-07-28T07:47:44.136Z,22.40
2023-07-28T07:50:11.929Z,22.50
2023-07-28T07:52:41.635Z,22.60
2023-07-28T07:55:10.481Z,22.70
2023-07-28T07:57:37.670Z,22.80
2023-07-28T08:00:04.858Z,22.90
2023-07-28T08:02:40.007Z,23.00
2023-07-28T08:05:07.458Z,23.10
2023-07-28T08:07:35.288Z,23.10
2023-07-28T08:10:02.811Z,23.00
2023-07-28T08:12:29.821Z,23.10
2023-07-28T08:14:57.335Z,23.10
2023-07-28T08:17:24.451Z,23.10
2023-07-28T08:19:51.697Z,23.20
2023-07-28T08:22:18.685Z,23.20
2023-07-28T08:24:46.319Z,23.30
2023-07-28T08:27:13.264Z,23.60
2023-07-28T08:29:40.355Z,23.70
2023-07-28T08:32:07.857Z,23.90
2023-07-28T08:34:34.943Z,24.00
2023-07-28T08:37:01.914Z,24.10
2023-07-28T08:39:29.035Z,24.10
2023-07-28T08:41:57.495Z,24.10
2023-07-28T08:44:24.515Z,24.20
2023-07-28T08:46:51.601Z,24.30
2023-07-28T08:49:18.665Z,24.30
2023-07-28T08:51:50.001Z,24.30
2023-07-28T08:54:17.585Z,24.30
2023-07-28T08:56:45.049Z,24.30
2023-07-28T08:59:12.022Z,24.50
2023-07-28T09:01:40.484Z,24.70
2023-07-28T09:04:09.182Z,25.20
2023-07-28T09:06:36.279Z,25.80
2023-07-28T09:09:03.651Z,26.30
2023-07-28T09:11:32.342Z,26.30
2023-07-28T09:14:01.328Z,26.30
2023-07-28T09:16:30.646Z,26.20
2023-07-28T09:19:05.191Z,26.10
2023-07-28T09:21:33.493Z,26.60
2023-07-28T09:24:02.253Z,27.20
2023-07-28T09:26:30.849Z,27.50
2023-07-28T09:28:58.304Z,27.40
2023-07-28T09:31:28.408Z,27.10
2023-07-28T09:33:55.480Z,27.00
2023-07-28T09:36:26.571Z,27.10
2023-07-28T09:38:54.671Z,27.00
2023-07-28T09:41:22.380Z,27.00
2023-07-28T09:43:50.952Z,27.10
2023-07-28T09:46:18.731Z,27.00
2023-07-28T09:48:46.759Z,26.80
2023-07-28T09:51:15.744Z,26.60
2023-07-28T09:53:47.192Z,26.30
2023-07-28T09:56:17.234Z,26.30
2023-07-28T09:58:50.359Z,26.50
2023-07-28T10:01:18.073Z,27.00
2023-07-28T10:03:45.363Z,27.20
2023-07-28T10:06:12.622Z,27.30
2023-07-28T10:08:40.650Z,27.30
2023-07-28T10:11:07.830Z,27.30
2023-07-28T10:13:43.690Z,27.20
2023-07-28T10:16:11.230Z,27.20
2023-07-28T10:18:38.342Z,27.20
2023-07-28T10:21:06.601Z,27.20
2023-07-28T10:23:35.153Z,27.30
2023-07-28T10:26:03.117Z,27.40
2023-07-28T10:28:33.147Z,27.70
2023-07-28T10:31:01.399Z,27.70
2023-07-28T10:33:30.218Z,27.60
2023-07-28T10:35:58.601Z,27.50
2023-07-28T10:38:27.092Z,27.40
2023-07-28T10:40:54.133Z,27.00
2023-07-28T10:43:22.506Z,26.70
2023-07-28T10:45:49.629Z,26.60
2023-07-28T10:48:16.576Z,26.40
2023-07-28T10:50:43.861Z,26.40
2023-07-28T10:53:12.089Z,26.40
2023-07-28T10:55:40.050Z,26.20
2023-07-28T10:58:07.425Z,26.10
2023-07-28T11:00:34.575Z,25.80
2023-07-28T11:03:01.649Z,25.80
2023-07-28T11:05:29.846Z,25.70
2023-07-28T11:08:00.235Z,25.70
2023-07-28T11:10:29.309Z,25.70
2023-07-28T11:13:00.384Z,25.70
2023-07-28T11:15:30.374Z,25.70
2023-07-28T11:18:01.499Z,25.70
2023-07-28T11:20:30.404Z,25.70
2023-07-28T11:22:58.310Z,25.60
2023-07-28T11:25:26.091Z,25.60
2023-07-28T11:27:56.505Z,25.60
2023-07-28T11:30:24.516Z,25.60
2023-07-28T11:32:52.631Z,25.50
2023-07-28T11:35:21.444Z,25.20
2023-07-28T11:37:52.103Z,25.00
2023-07-28T11:40:21.189Z,24.80
2023-07-28T11:42:49.512Z,24.60
2023-07-28T11:45:19.805Z,24.30
2023-07-28T11:47:48.601Z,24.00
2023-07-28T11:50:23.295Z,24.00
2023-07-28T11:52:50.566Z,23.90
2023-07-28T11:55:17.966Z,23.80
2023-07-28T11:57:45.465Z,23.80
2023-07-28T12:00:13.853Z,23.90
2023-07-28T12:02:41.123Z,24.00
2023-07-28T12:05:22.132Z,24.10
2023-07-28T12:07:50.085Z,24.20
2023-07-28T12:10:42.852Z,24.40
2023-07-28T12:20:48.194Z,24.20
2023-07-28T12:25:47.618Z,24.10
2023-07-28T12:30:45.820Z,24.20
2023-07-28T12:44:06.095Z,24.30
2023-07-28T12:48:31.289Z,24.40
2023-07-28T12:53:28.641Z,24.50
2023-07-28T13:03:29.495Z,25.30
2023-07-28T13:05:56.702Z,25.50
2023-07-28T13:13:24.581Z,25.90
2023-07-28T13:15:51.791Z,26.00
2023-07-28T13:18:19.078Z,26.20
2023-07-28T13:20:46.252Z,26.30
2023-07-28T13:23:13.596Z,26.40
2023-07-28T13:25:40.700Z,26.40
2023-07-28T13:28:10.828Z,26.30
2023-07-28T13:30:40.147Z,26.10
2023-07-28T13:33:13.735Z,26.10
2023-07-28T13:35:41.144Z,26.10
2023-07-28T13:38:08.279Z,26.10
2023-07-28T13:40:38.426Z,26.10
2023-07-28T13:43:06.762Z,26.10
2023-07-28T13:45:34.843Z,26.10
2023-07-28T13:48:02.229Z,26.30
2023-07-28T13:52:59.926Z,26.70
2023-07-28T13:55:57.415Z,26.80
2023-07-28T13:58:25.659Z,26.90
2023-07-28T14:00:52.986Z,26.80
2023-07-28T14:03:20.497Z,26.70
2023-07-28T14:05:48.358Z,26.70
2023-07-28T14:08:15.839Z,26.60
2023-07-28T14:10:44.469Z,26.40
2023-07-28T14:13:11.660Z,26.30
2023-07-28T14:15:40.643Z,26.20
2023-07-28T14:18:08.993Z,26.10
2023-07-28T14:20:36.310Z,26.10
2023-07-28T14:23:20.879Z,26.20
2023-07-28T14:25:48.152Z,26.20
2023-07-28T14:28:15.240Z,26.30
2023-07-28T14:30:47.443Z,26.40
2023-07-28T14:33:16.416Z,26.40
2023-07-28T14:35:45.047Z,26.30
2023-07-28T14:38:12.562Z,26.30
2023-07-28T14:40:41.128Z,26.10
2023-07-28T14:43:08.391Z,25.90
2023-07-28T14:45:35.850Z,25.80
2023-07-28T14:48:04.380Z,25.80
2023-07-28T14:50:31.550Z,25.80
2023-07-28T14:53:00.291Z,25.70
2023-07-28T14:55:27.974Z,25.60
2023-07-28T14:57:55.092Z,25.50
2023-07-28T15:00:22.347Z,25.50
2023-07-28T15:02:49.493Z,25.50
2023-07-28T15:05:16.776Z,25.50
2023-07-28T15:07:43.972Z,25.50
2023-07-28T15:10:11.401Z,25.60
2023-07-28T15:12:38.462Z,25.50
2023-07-28T15:15:06.109Z,25.50
2023-07-28T15:17:33.258Z,25.50
2023-07-28T15:20:00.643Z,25.40
2023-07-28T15:22:27.861Z,25.30
2023-07-28T15:24:55.069Z,25.30
2023-07-28T15:27:22.171Z,25.20
2023-07-28T15:29:49.488Z,25.10
2023-07-28T15:32:16.629Z,25.00
2023-07-28T15:34:44.001Z,25.00
2023-07-28T15:37:13.599Z,24.80
2023-07-28T15:39:40.779Z,24.80
2023-07-28T15:42:07.849Z,24.90
2023-07-28T15:44:35.123Z,24.90
2023-07-28T15:47:02.302Z,24.90
2023-07-28T15:49:29.489Z,25.00
2023-07-28T15:51:56.689Z,25.00
2023-07-28T15:54:23.878Z,25.00
2023-07-28T15:56:51.008Z,25.00
2023-07-28T15:59:18.265Z,24.90
2023-07-28T16:01:45.453Z,24.90
2023-07-28T16:04:12.800Z,24.90
2023-07-28T16:06:40.040Z,24.90
2023-07-28T16:09:16.149Z,24.90
2023-07-28T16:11:44.320Z,24.90
2023-07-28T16:14:11.379Z,24.90
2023-07-28T16:16:38.808Z,24.90
2023-07-28T16:19:07.572Z,24.90
2023-07-28T16:21:35.009Z,24.90
2023-07-28T16:24:02.333Z,24.80
2023-07-28T16:26:29.578Z,24.80
2023-07-28T16:28:56.691Z,24.90
2023-07-28T16:31:23.955Z,24.90
2023-07-28T16:33:51.122Z,25.00
2023-07-28T16:36:18.350Z,25.20
2023-07-28T16:38:45.492Z,25.30
2023-07-28T16:41:12.773Z,25.40
2023-07-28T16:43:39.828Z,25.50
2023-07-28T16:46:07.445Z,25.50
2023-07-28T16:48:34.637Z,25.60
2023-07-28T16:51:01.809Z,25.60
2023-07-28T16:53:28.892Z,25.70
2023-07-28T16:55:56.230Z,25.80
2023-07-28T16:58:23.282Z,25.70
2023-07-28T17:00:50.471Z,25.70
2023-07-28T17:03:17.722Z,25.70
2023-07-28T17:05:44.989Z,25.60
2023-07-28T17:08:12.108Z,25.50
2023-07-28T17:10:39.439Z,25.50
2023-07-28T17:13:06.512Z,25.40
2023-07-28T17:15:40.094Z,25.50
2023-07-28T17:18:09.528Z,25.50
2023-07-28T17:20:36.685Z,25.50
2023-07-28T17:23:04.043Z,25.50
2023-07-28T17:25:31.183Z,25.40
2023-07-28T17:27:58.392Z,25.40
2023-07-28T17:30:25.503Z,25.40
2023-07-28T17:32:52.873Z,25.40
2023-07-28T17:35:19.962Z,25.30
2023-07-28T17:37:48.155Z,25.30
2023-07-28T17:40:15.320Z,25.20
2023-07-28T17:42:42.519Z,25.20
2023-07-28T17:45:09.730Z,25.10
2023-07-28T17:47:39.073Z,25.10
2023-07-28T17:50:07.666Z,25.10
2023-07-28T17:52:35.358Z,25.10
2023-07-28T17:55:02.648Z,25.00
2023-07-28T17:57:30.906Z,25.10
2023-07-28T17:59:58.203Z,25.00
2023-07-28T18:02:25.477Z,25.00
2023-07-28T18:04:52.652Z,25.00
2023-07-28T18:07:19.789Z,24.90
2023-07-28T18:09:47.135Z,25.00
2023-07-28T18:12:14.401Z,24.90
2023-07-28T18:14:41.505Z,24.90
2023-07-28T18:17:08.808Z,24.80
2023-07-28T18:19:35.917Z,24.80
2023-07-28T18:22:03.130Z,24.80
2023-07-28T18:24:30.305Z,24.80
2023-07-28T18:26:57.777Z,24.70
2023-07-28T18:29:24.893Z,24.70
2023-07-28T18:31:52.254Z,24.70
2023-07-28T18:34:19.390Z,24.70
2023-07-28T18:36:46.616Z,24.70
2023-07-28T18:39:13.802Z,24.70
2023-07-28T18:41:40.959Z,24.70
2023-07-28T18:44:08.053Z,24.70
2023-07-28T18:46:35.353Z,24.70
2023-07-28T18:49:02.457Z,24.60
2023-07-28T18:51:32.708Z,24.60
2023-07-28T18:54:00.578Z,24.60
2023-07-28T18:56:27.757Z,24.60
2023-07-28T18:58:55.971Z,24.60
2023-07-28T19:01:23.254Z,24.50
2023-07-28T19:03:50.659Z,24.50
2023-07-28T19:06:20.144Z,24.50
2023-07-28T19:08:51.569Z,24.50
2023-07-28T19:11:19.077Z,24.40
2023-07-28T19:13:46.197Z,24.40
2023-07-28T19:16:14.350Z,24.30
2023-07-28T19:18:41.576Z,24.30
2023-07-28T19:21:08.708Z,24.30
2023-07-28T19:23:36.246Z,24.30
2023-07-28T19:26:03.367Z,24.30
2023-07-28T19:28:30.643Z,24.20
2023-07-28T19:31:01.274Z,24.20
2023-07-28T19:33:28.537Z,24.10
2023-07-28T19:35:55.669Z,24.10
2023-07-28T19:38:22.997Z,24.00
2023-07-28T19:40:50.127Z,24.00
2023-07-28T19:43:17.297Z,24.00
2023-07-28T19:45:46.648Z,24.00
2023-07-28T19:48:14.178Z,24.00
2023-07-28T19:50:46.642Z,24.00
2023-07-28T19:53:16.217Z,24.00
2023-07-28T19:55:46.238Z,24.00
2023-07-28T19:58:14.663Z,23.90
2023-07-28T20:00:41.937Z,23.90
2023-07-28T20:03:09.254Z,23.90
2023-07-28T20:05:36.857Z,23.90
2023-07-28T20:08:04.712Z,23.80
2023-07-28T20:10:33.402Z,23.90
2023-07-28T20:13:01.225Z,23.80
2023-07-28T20:15:29.013Z,23.80
2023-07-28T20:17:56.510Z,23.80
2023-07-28T20:20:23.627Z,23.70
2023-07-28T20:22:57.952Z,23.70
2023-07-28T20:25:25.361Z,23.70
2023-07-28T20:27:52.818Z,23.70
2023-07-28T20:30:20.171Z,23.60
2023-07-28T20:32:47.479Z,23.50
2023-07-28T20:35:14.964Z,23.40
2023-07-28T20:37:42.332Z,23.30
2023-07-28T20:40:09.841Z,23.30
2023-07-28T20:42:36.970Z,23.20
2023-07-28T20:45:04.213Z,23.20
2023-07-28T20:47:31.342Z,23.10
2023-07-28T20:49:58.619Z,23.10
2023-07-28T20:52:25.798Z,23.10
2023-07-28T20:54:52.947Z,23.20
2023-07-28T20:57:20.015Z,23.20
2023-07-28T20:59:47.332Z,23.30
2023-07-28T21:02:15.312Z,23.20
2023-07-28T21:04:42.719Z,23.20
2023-07-28T21:07:10.007Z,23.20
2023-07-28T21:09:37.116Z,23.30
2023-07-28T21:12:04.438Z,23.20
2023-07-28T21:14:31.605Z,23.20
2023-07-28T21:16:58.927Z,23.20
2023-07-28T21:19:26.072Z,23.20
2023-07-28T21:21:53.629Z,23.20
2023-07-28T21:24:20.717Z,23.20
2023-07-28T21:26:47.865Z,23.20
2023-07-28T21:29:15.103Z,23.20
2023-07-28T21:31:42.402Z,23.10
2023-07-28T21:34:13.416Z,23.10
2023-07-28T21:36:41.456Z,23.00
2023-07-28T21:39:08.845Z,23.00
2023-07-28T21:41:36.051Z,23.00
2023-07-28T21:44:03.287Z,22.90
2023-07-28T21:46:30.826Z,22.90
2023-07-28T21:48:58.350Z,23.00
2023-07-28T21:51:25.580Z,22.90
2023-07-28T21:53:53.826Z,23.00
2023-07-28T21:56:22.850Z,22.90
2023-07-28T21:58:50.188Z,23.00
2023-07-28T22:01:17.549Z,22.90
2023-07-28T22:03:44.678Z,22.90
2023-07-28T22:06:12.082Z,22.90
2023-07-28T22:08:39.310Z,22.90
2023-07-28T22:11:07.044Z,22.80
2023-07-28T22:13:34.308Z,22.80
2023-07-28T22:16:01.632Z,22.70
2023-07-28T22:18:28.763Z,22.70
2023-07-28T22:20:56.051Z,22.70
2023-07-28T22:23:23.550Z,22.60
2023-07-28T22:25:51.245Z,22.40
2023-07-28T22:28:18.445Z,22.50
2023-07-28T22:30:45.981Z,22.50
2023-07-28T22:33:13.216Z,22.50
2023-07-28T22:35:40.562Z,22.60
2023-07-28T22:38:07.653Z,22.60
2023-07-28T22:40:34.849Z,22.70
2023-07-28T22:43:02.009Z,22.70
2023-07-28T22:45:29.230Z,22.70
2023-07-28T22:47:56.383Z,22.70
2023-07-28T22:50:23.751Z,22.70
2023-07-28T22:52:51.251Z,22.80
2023-07-28T22:55:18.502Z,22.80
2023-07-28T22:57:45.711Z,22.80
2023-07-28T23:00:13.501Z,22.80
2023-07-28T23:02:40.928Z,22.80
2023-07-28T23:05:10.745Z,22.80
2023-07-28T23:07:38.633Z,22.80
2023-07-28T23:10:06.731Z,22.70
2023-07-28T23:12:33.884Z,22.70
2023-07-28T23:15:01.162Z,22.70
2023-07-28T23:17:28.356Z,22.50
2023-07-28T23:19:55.689Z,22.50
2023-07-28T23:22:22.869Z,22.60
2023-07-28T23:24:50.280Z,22.50
2023-07-28T23:27:19.558Z,22.40
2023-07-28T23:29:47.097Z,22.50
2023-07-28T23:32:14.520Z,22.50
2023-07-28T23:34:41.844Z,22.50
2023-07-28T23:37:08.957Z,22.50
2023-07-28T23:39:36.390Z,22.50
2023-07-28T23:42:03.609Z,22.60
2023-07-28T23:44:30.791Z,22.60
2023-07-28T23:46:58.071Z,22.60
2023-07-28T23:49:25.404Z,22.60
2023-07-28T23:51:52.593Z,22.40
2023-07-28T23:54:19.779Z,22.30
2023-07-28T23:56:47.039Z,22.30
2023-07-28T23:59:14.485Z,22.30
